Date,TemperatureHighF,TemperatureAvgF,TemperatureLowF,DewpointHighF,DewpointAvgF,DewpointLowF,HumidityHigh,HumidityAvg,HumidityLow,PressureMaxIn,PressureMinIn,WindSpeedMaxMPH,WindSpeedAvgMPH,GustSpeedMaxMPH,PrecipitationSumIn
2013-1-1,82,64,49,66,58,49,99,83,47,28.24,28.05,13,3,17,0.00
2013-1-2,88,67,52,77,64,52,99,92,63,28.08,27.98,16,4,16,0.00
2013-1-3,68,62,56,68,62,56,99,99,99,28.22,28.05,16,6,20,0.09
2013-1-4,60,56,52,60,56,51,99,99,99,28.33,28.20,17,7,20,0.02
2013-1-5,76,59,46,68,57,45,99,93,71,28.33,28.22,11,6,15,0.00
2013-1-6,85,66,52,75,65,52,99,96,63,28.24,28.07,11,4,14,0.00
2013-1-7,69,61,52,62,59,52,99,93,75,28.27,28.15,17,9,20,0.01
2013-1-8,83,69,58,77,68,58,99,97,76,28.25,28.16,14,6,14,0.00
2013-1-9,85,75,68,79,72,67,99,94,72,28.33,28.22,13,6,14,0.00
2013-1-10,93,74,66,78,70,64,99,88,46,28.33,28.24,15,6,17,0.00
2013-1-11,86,71,58,78,66,58,99,88,54,28.29,28.17,17,3,17,0.00
2013-1-12,89,71,56,77,65,56,99,85,46,28.21,28.11,11,3,14,0.00
2013-1-13,86,72,62,75,68,62,99,87,53,28.20,28.08,11,3,12,0.00
2013-1-14,86,70,58,75,64,56,99,84,44,28.21,28.12,10,2,15,0.00
2013-1-15,87,70,56,77,64,56,99,82,44,28.17,28.06,11,3,14,0.00
2013-1-16,88,71,59,74,64,59,99,84,41,28.12,28.01,10,3,13,0.00
2013-1-17,78,61,48,76,59,44,99,94,73,28.17,28.00,19,8,26,0.00
2013-1-18,71,51,36,63,47,36,99,86,69,28.34,28.17,27,12,31,0.00
2013-1-19,77,66,51,63,60,51,99,82,58,28.33,28.17,17,10,20,0.00
2013-1-20,80,66,56,73,60,54,99,82,50,28.22,28.07,13,6,17,0.00
2013-1-21,91,65,47,70,56,47,99,77,43,28.13,28.02,12,4,13,0.00
2013-1-22,67,55,44,51,39,26,86,58,22,28.30,28.10,14,6,16,0.00
2013-1-23,74,53,38,42,32,13,97,57,10,28.41,28.30,14,4,17,0.00
2013-1-24,77,56,34,58,47,34,99,79,38,28.34,28.23,14,4,17,0.00
2013-1-25,81,62,48,64,50,46,99,73,31,28.33,28.18,11,3,12,0.00
2013-1-26,80,61,43,66,54,42,99,83,45,28.29,28.17,10,3,13,0.00
2013-1-27,84,63,49,69,58,48,99,87,43,28.34,28.23,11,4,15,0.00
2013-1-28,85,70,60,71,64,60,99,85,51,28.36,28.23,15,5,17,0.00
2013-1-29,88,71,58,77,66,58,99,87,48,28.27,28.10,13,5,15,0.00
2013-1-30,88,75,65,74,68,64,99,81,46,28.11,27.86,18,8,21,0.00
2013-1-31,72,56,43,71,39,8,99,64,10,28.26,27.91,23,8,24,0.06